KJEF

Jefferson City Memorial Airport

Jefferson City, Missouri, USA
METAR KJEF 170953Z AUTO 00000KT 10SM CLR M18/M21 A3071 RMK AO2 SLP403 T11831206
Observed Flight Rules
Jan-17 @ 09:53 UTC (an hour ago) Visual Flight Rules
Wind Visibility Clouds
Calm 10 miles
  • Clear skies
Temperatures Readings
Current -18°C / 0°F
Dewpoint -21°C / -6°F
Humidity 78%
Altimeter 30.71" Hg
Pressure 1040.3 hPa
Elevation 168
METAR KJEF 170953Z AUTO 00000KT 10SM CLR M18/M21 A3071 RMK AO2 SLP403 T11831206
Observed Flight Rules
Jan-17 @ 09:53 UTC
(an hour ago)
VFR
Wind Visibility
Calm 10 miles
Clouds
  • Clear skies
Temperature Dewpoint
-18°C / 0°F -21°C / -6°F
Humidity Altimeter Pressure
78% 30.71" Hg 1040.3 hPa